Flight Track Log - Related Links

Times and Time Zones

All times are in EDT time to prevent confusion due to time zone crossing. See the EGF2813 flight status page for this flight to view local times or setup timezone preferences in your user account.


Time Position Orientation Groundspeed Altitude Reporting Facility
EDT Latitude Longitude Course Direction KTS MPH feet Rate Location/Type
Wed 08:28:06 PM 40.0033 -82.9183 288° West 167 192 1,900  Level Indianapolis Center
Wed 08:28:12 PM 40.0028 -82.9236 262° West 161 185 2,200 2,000 Climbing Indianapolis Center
Wed 08:28:57 PM 40.0072 -82.9589 279° West 171 197 3,600 2,656 Climbing Indianapolis Center
Wed 08:29:13 PM 40.0114 -82.9906 280° West 209 241 4,900 2,852 Climbing Indianapolis Center
Wed 08:29:58 PM 40.0183 -83.0356 281° West 201 231 6,500 2,467 Climbing Indianapolis Center
Wed 08:30:00 PM 40.0692 -83.1777 287° West  Level FlightAware Approximate
Wed 08:31:00 PM 40.0928 -83.2798 287° West  Level FlightAware Approximate
Wed 08:31:00 PM 40.0353 -83.1392 282° West 236 272 9,300  Level Indianapolis Center
Wed 08:32:00 PM 40.1164 -83.3821 287° West  Level FlightAware Approximate
Wed 08:32:01 PM 40.0519 -83.2300 284° West 254 292 10,000  Level Indianapolis Center
Wed 08:33:00 PM 40.1418 -83.4836 288° West  Level FlightAware Approximate
Wed 08:33:02 PM 40.0700 -83.3306 283° West 279 321 10,300  Level Indianapolis Center
Wed 08:34:04 PM 40.0914 -83.4392 284° West 304 350 12,400 2,049 Climbing Indianapolis Center
Wed 08:35:05 PM 40.1358 -83.5417 300° West 330 380 14,500 2,000 Climbing Indianapolis Center
Wed 08:36:07 PM 40.1889 -83.6425 305° West 337 388 16,500 1,902 Climbing Indianapolis Center
Wed 08:37:08 PM 40.2422 -83.7453 304° West 340 391 18,400 1,918 Climbing Indianapolis Center
Wed 08:38:09 PM 40.3083 -83.8717 304° West 348 400 20,400 1,707 Climbing Indianapolis Center
Wed 08:39:11 PM 40.3653 -83.9811 304° West 361 415 21,900 1,463 Climbing Indianapolis Center
Wed 08:40:12 PM 40.4225 -84.0917 304° West 363 418 23,400 1,415 Climbing Indianapolis Center
Wed 08:41:14 PM 40.4806 -84.2050 304° West 369 425 24,800 1,122 Climbing Indianapolis Center
Wed 08:42:15 PM 40.5406 -84.3217 304° West 381 438 25,700 590 Climbing Indianapolis Center
Wed 08:43:16 PM 40.6014 -84.4425 304° West 391 450 26,000 146 Climbing Indianapolis Center
Wed 08:44:18 PM 40.6658 -84.5675 304° West 408 470 26,000  Level Indianapolis Center
Wed 08:45:30 PM 40.7506 -84.7319 304° West 418 481 26,000  Level Chicago Center
Wed 08:46:32 PM 40.8136 -84.8575 304° West 414 476 26,000  Level Chicago Center
Wed 08:47:34 PM 40.8753 -84.9800 304° West 405 466 26,000  Level Chicago Center
Wed 08:48:36 PM 40.9364 -85.1014 304° West 399 459 26,000  Level Chicago Center
Wed 08:49:38 PM 40.9878 -85.2300 298° West 395 455 26,000  Level Chicago Center
Wed 08:50:40 PM 41.0464 -85.3861 297° West 392 451 26,000  Level Chicago Center
Wed 08:51:42 PM 41.0933 -85.5144 296° West 388 447 26,000 -339 Level Chicago Center
Wed 08:52:44 PM 41.1417 -85.6447 296° West 390 449 25,300 -484 Descending Chicago Center
Wed 08:53:46 PM 41.1914 -85.7794 296° West 400 460 25,000 -145 Descending Chicago Center
Wed 08:54:48 PM 41.2400 -85.9164 295° West 409 471 25,000  Level Chicago Center
Wed 08:55:50 PM 41.2886 -86.0553 295° West 411 473 25,000 -48 Level Chicago Center
Wed 08:56:52 PM 41.3361 -86.1950 294° West 414 476 24,900 -968 Descending Chicago Center
Wed 08:57:54 PM 41.3919 -86.3600 294° West 408 470 23,000 -2,081 Descending Chicago Center
Wed 08:58:56 PM 41.4483 -86.4736 304° West 374 430 20,600 -2,710 Descending Chicago Center
Wed 08:59:58 PM 41.5158 -86.5758 311° West 365 420 17,400 -2,976 Descending Chicago Center
Wed 09:00:59 PM 41.5783 -86.6725 311° West 349 402 14,500 -2,634 Descending Chicago Center
Wed 09:02:01 PM 41.6467 -86.7753 312° West 340 391 12,000 -1,210 Descending Chicago Center
Wed 09:03:03 PM 41.7347 -86.8042 346° North 309 356 12,000  Level Chicago Center
Wed 09:04:05 PM 41.8194 -86.8194 352° North 308 354 12,000 -97 Level Chicago Center
Wed 09:05:07 PM 41.8989 -86.8753 332° Northwest 315 362 11,800 -581 Descending Chicago Center
Wed 09:06:09 PM 41.9314 -86.9836 292° West 314 361 10,800 -871 Descending Chicago Center
Wed 09:07:11 PM 41.9644 -87.0897 293° West 310 357 10,000 -823 Descending Chicago Center
Wed 09:08:13 PM 41.9814 -87.1886 283° West 255 293 9,100 -774 Descending Chicago Center
Wed 09:09:15 PM 41.9800 -87.2869 269° West 262 302 8,400 -823 Descending Chicago Center
Wed 09:10:17 PM 41.9828 -87.3911 272° West 260 299 7,400 -677 Descending Chicago Center
Wed 09:11:19 PM 41.9817 -87.4858 269° West 256 295 7,000 -871 Descending Chicago Center
Wed 09:12:21 PM 41.9828 -87.5861 271° West 252 290 5,600 -1,366 Descending Chicago Center
Wed 09:13:22 PM 41.9828 -87.6678 270° West 226 260 4,200 -1,220 Descending Chicago Center
Wed 09:14:24 PM 41.9833 -87.7328 271° West 183 211 3,100 -1,017 Descending Chicago Center
Wed 09:15:20 PM 41.9833 -87.8000 270° West 178 205 2,200 -873 Descending Chicago TRACON
Wed 09:16:14 PM 41.9833 -87.8500 270° West 140 161 1,500 -778 Descending Chicago TRACON

Login

Don't have an account? Register now (free) for customized features, flight alerts, and more!